Time;durP1;ratioP1;P1;durP2;ratioP2;P2;SDS_P1;SDS_P2;PMS_P1;PMS_P2;Temp;Humidity;BMP_temperature;BMP_pressure;BME280_temperature;BME280_humidity;BME280_pressure;Samples;Min_cycle;Max_cycle;Signal;HPM_P1;HPM_P2
2022/04/10 00:02:04;;;;;;;;;;;;;;;-142.57;100.00;61215.63;4892462;29;20010;-88
2022/04/10 00:04:30;;;;;;;;;;;;;;;-142.57;100.00;61215.63;4893879;29;19981;-90
2022/04/10 00:06:56;;;;;;;;;;;;;;;-142.57;100.00;61215.63;4990732;23;20342;-89
2022/04/10 00:09:21;;;;;;;;;;;;;;;-142.57;100.00;61215.63;4913249;29;19952;-89
2022/04/10 00:11:46;;;;;;;;;;;;;;;-142.57;100.00;61215.63;4914565;29;19922;-85
2022/04/10 00:14:12;;;;;;;;;;;;;;;-142.57;100.00;61215.63;4894828;29;19926;-84
2022/04/10 00:16:40;;;;;;;;;;;;;;;-142.57;100.00;61215.63;4918031;29;19942;-86
2022/04/10 00:19:06;;;;;;;;;;;;;;;-142.57;100.00;61215.63;4919357;29;19962;-85
2022/04/10 00:21:32;;;;;;;;;;;;;;;-142.57;100.00;61215.63;4927596;29;19899;-85
2022/04/10 00:23:59;;;;;;;;;;;;;;;-142.57;100.00;61215.63;4923766;29;19930;-87
2022/04/10 00:26:24;;;;;;;;;;;;;;;-142.57;100.00;61215.63;4908075;29;19983;-86
2022/04/10 00:28:53;;;;;;;;;;;;;;;-142.57;100.00;61215.63;4901325;29;19915;-85
2022/04/10 00:31:21;;;;;;;;;;;;;;;-142.57;100.00;61215.63;4905568;29;19926;-84
2022/04/10 00:33:51;;;;;;;;;;;;;;;-142.57;100.00;61215.63;4904892;29;20297;-84
2022/04/10 00:36:17;;;;;;;;;;;;;;;-142.57;100.00;61215.63;4907098;29;19927;-87
2022/04/10 00:38:42;;;;;;;;;;;;;;;-142.57;100.00;61215.63;4888401;29;19924;-86
2022/04/10 00:41:10;;;;;;;;;;;;;;;-142.57;100.00;61215.63;4904515;29;19931;-85
2022/04/10 00:43:38;;;;;;;;;;;;;;;-142.57;100.00;61215.63;4873196;29;19926;-86
2022/04/10 00:46:04;;;;;;;;;;;;;;;-142.57;100.00;61215.63;4888341;29;19924;-89
2022/04/10 00:48:30;;;;;;;;;;;;;;;-142.57;100.00;61215.63;4887423;29;19920;-85
2022/04/10 00:53:55;;;;;;;;;;;;;;;-142.57;100.00;61215.63;4876563;27;19931;-83
2022/04/10 00:56:21;;;;;;;;;;;;;;;-142.57;100.00;61215.63;4886954;29;19923;-85
2022/04/10 00:58:47;;;;;;;;;;;;;;;-142.57;100.00;61215.63;4887942;29;20427;-84
2022/04/10 01:01:12;;;;;;;;;;;;;;;-142.57;100.00;61215.63;4905533;29;19920;-84
2022/04/10 01:03:44;;;;;;;;;;;;;;;-142.57;100.00;61215.63;4915082;29;20258;-85
2022/04/10 01:06:16;;;;;;;;;;;;;;;-142.57;100.00;61215.63;4889399;29;20373;-87
2022/04/10 01:08:41;;;;;;;;;;;;;;;-142.57;100.00;61215.63;4904279;29;19919;-88
2022/04/10 01:11:07;;;;;;;;;;;;;;;-142.57;100.00;61215.63;4885319;29;19919;-84
2022/04/10 01:13:32;;;;;;;;;;;;;;;-142.57;100.00;61215.63;4903063;29;19923;-86
2022/04/10 01:15:58;;;;;;;;;;;;;;;-142.57;100.00;61215.63;4886624;29;19995;-85
2022/04/10 01:18:25;;;;;;;;;;;;;;;-142.57;100.00;61215.63;4885480;29;19923;-85
2022/04/10 01:20:52;;;;;;;;;;;;;;;-142.57;100.00;61215.63;4885675;29;19919;-88
2022/04/10 01:23:20;;;;;;;;;;;;;;;-142.57;100.00;61215.63;4901868;29;20389;-86
2022/04/10 01:25:47;;;;;;;;;;;;;;;-142.57;100.00;61215.63;4887262;29;19979;-83
2022/04/10 01:28:15;;;;;;;;;;;;;;;-142.57;100.00;61215.63;4887616;29;19944;-84
2022/04/10 01:30:43;;;;;;;;;;;;;;;-142.57;100.00;61215.63;4954045;23;20381;-86
2022/04/10 01:33:09;;;;;;;;;;;;;;;-142.57;100.00;61215.63;4941119;29;20005;-85
2022/04/10 01:35:36;;;;;;;;;;;;;;;-142.57;100.00;61215.63;4929479;29;19929;-83
2022/04/10 01:38:04;;;;;;;;;;;;;;;-142.57;100.00;61215.63;4945676;29;19906;-85
2022/04/10 01:40:35;;;;;;;;;;;;;;;-142.57;100.00;61215.63;4945552;29;19930;-85
2022/04/10 01:43:04;;;;;;;;;;;;;;;-142.57;100.00;61215.63;4929567;29;19926;-86
2022/04/10 01:45:30;;;;;;;;;;;;;;;-142.57;100.00;61215.63;4924625;29;20365;-86
2022/04/10 01:47:56;;;;;;;;;;;;;;;-142.57;100.00;61215.63;4924941;29;20365;-90
2022/04/10 01:50:24;;;;;;;;;;;;;;;-142.57;100.00;61215.63;4940674;29;19925;-84
2022/04/10 01:52:51;;;;;;;;;;;;;;;-142.57;100.00;61215.63;4923528;29;20285;-86
2022/04/10 01:55:20;;;;;;;;;;;;;;;-142.57;100.00;61215.63;4925476;29;19925;-86
2022/04/10 01:57:46;;;;;;;;;;;;;;;-142.57;100.00;61215.63;4927313;29;20365;-87
2022/04/10 02:00:12;;;;;;;;;;;;;;;-142.57;100.00;61215.63;4924750;29;19977;-84
2022/04/10 02:02:44;;;;;;;;;;;;;;;-142.57;100.00;61215.63;4943272;29;19942;-81
2022/04/10 02:05:10;;;;;;;;;;;;;;;-142.57;100.00;61215.63;4958439;29;19921;-82
2022/04/10 02:07:35;;;;;;;;;;;;;;;-142.57;100.00;61215.63;4941986;29;19950;-82
2022/04/10 02:10:02;;;;;;;;;;;;;;;-142.57;100.00;61215.63;4955577;29;19899;-82
2022/04/10 02:12:31;;;;;;;;;;;;;;;-142.57;100.00;61215.63;4930531;29;19922;-84
2022/04/10 02:14:56;;;;;;;;;;;;;;;-142.57;100.00;61215.63;4945649;29;20286;-84
2022/04/10 02:17:21;;;;;;;;;;;;;;;-142.57;100.00;61215.63;4926916;29;19926;-83
2022/04/10 02:22:46;;;;;;;;;;;;;;;-142.57;100.00;61215.63;4882441;29;19997;-87
2022/04/10 02:25:13;;;;;;;;;;;;;;;-142.57;100.00;61215.63;4851920;29;19923;-88
2022/04/10 02:27:38;;;;;;;;;;;;;;;-142.57;100.00;61215.63;4884500;29;19926;-85
2022/04/10 02:30:04;;;;;;;;;;;;;;;-142.57;100.00;61215.63;4884282;29;19959;-87
2022/04/10 02:32:30;;;;;;;;;;;;;;;-142.57;100.00;61215.63;4883915;29;19919;-83
2022/04/10 02:34:57;;;;;;;;;;;;;;;-142.57;100.00;61215.63;4881277;29;20266;-83
2022/04/10 02:37:22;;;;;;;;;;;;;;;-142.57;100.00;61215.63;4880330;29;19987;-83
2022/04/10 02:39:48;;;;;;;;;;;;;;;-142.57;100.00;61215.63;4885491;29;19919;-85
2022/04/10 02:42:13;;;;;;;;;;;;;;;-142.57;100.00;61215.63;4871276;29;19920;-83
2022/04/10 02:44:39;;;;;;;;;;;;;;;-142.57;100.00;61215.63;4873505;29;19927;-89
2022/04/10 02:47:04;;;;;;;;;;;;;;;-142.57;100.00;61215.63;4879601;29;19920;-83
2022/04/10 02:49:30;;;;;;;;;;;;;;;-142.57;100.00;61215.63;4880607;29;19992;-87
2022/04/10 02:51:55;;;;;;;;;;;;;;;-142.57;100.00;61215.63;4880149;29;19924;-86
2022/04/10 02:54:21;;;;;;;;;;;;;;;-142.57;100.00;61215.63;4883633;29;19963;-86
2022/04/10 02:56:46;;;;;;;;;;;;;;;-142.57;100.00;61215.63;4884918;29;19948;-87
2022/04/10 02:59:12;;;;;;;;;;;;;;;-142.57;100.00;61215.63;4849905;29;19924;-87
2022/04/10 03:01:37;;;;;;;;;;;;;;;-142.57;100.00;61215.63;4863793;29;19920;-86
2022/04/10 03:04:03;;;;;;;;;;;;;;;-142.57;100.00;61215.63;4881553;29;19974;-86
2022/04/10 03:06:28;;;;;;;;;;;;;;;-142.57;100.00;61215.63;4883334;29;19926;-90
2022/04/10 03:08:54;;;;;;;;;;;;;;;-142.57;100.00;61215.63;4882117;29;19927;-87
2022/04/10 03:11:19;;;;;;;;;;;;;;;-142.57;100.00;61215.63;4880582;29;19966;-89
2022/04/10 03:13:45;;;;;;;;;;;;;;;-142.57;100.00;61215.63;4878964;29;19926;-84
2022/04/10 03:16:11;;;;;;;;;;;;;;;-142.57;100.00;61215.63;4882812;29;20298;-89
2022/04/10 03:18:39;;;;;;;;;;;;;;;-142.57;100.00;61215.63;4880053;29;21125;-85
2022/04/10 03:21:05;;;;;;;;;;;;;;;-142.57;100.00;61215.63;4878839;29;19976;-86
2022/04/10 03:23:31;;;;;;;;;;;;;;;-142.57;100.00;61215.63;4878631;29;19927;-92
2022/04/10 03:25:56;;;;;;;;;;;;;;;-142.57;100.00;61215.63;4879044;29;19926;-89
2022/04/10 03:28:21;;;;;;;;;;;;;;;-142.57;100.00;61215.63;4877934;29;19976;-89
2022/04/10 03:30:47;;;;;;;;;;;;;;;-142.57;100.00;61215.63;4880076;29;19920;-85
2022/04/10 03:33:14;;;;;;;;;;;;;;;-142.57;100.00;61215.63;4862286;29;20266;-84
2022/04/10 03:35:40;;;;;;;;;;;;;;;-142.57;100.00;61215.63;4879804;29;19927;-88
2022/04/10 03:38:08;;;;;;;;;;;;;;;-142.57;100.00;61215.63;4878938;29;19920;-88
2022/04/10 03:40:34;;;;;;;;;;;;;;;-142.57;100.00;61215.63;4867320;29;19927;-89
2022/04/10 03:43:00;;;;;;;;;;;;;;;-142.57;100.00;61215.63;4863461;29;20059;-83
2022/04/10 03:45:26;;;;;;;;;;;;;;;-142.57;100.00;61215.63;4881319;29;19924;-86
2022/04/10 03:47:52;;;;;;;;;;;;;;;-142.57;100.00;61215.63;4878584;29;20145;-90
2022/04/10 03:50:17;;;;;;;;;;;;;;;-142.57;100.00;61215.63;4878883;29;19955;-88
2022/04/10 03:52:43;;;;;;;;;;;;;;;-142.57;100.00;61215.63;4880253;29;19931;-88
2022/04/10 03:55:09;;;;;;;;;;;;;;;-142.57;100.00;61215.63;4878774;29;19994;-92
2022/04/10 03:57:34;;;;;;;;;;;;;;;-142.57;100.00;61215.63;4879021;29;19926;-86
2022/04/10 04:00:01;;;;;;;;;;;;;;;-142.57;100.00;61215.63;4864003;29;20411;-91
2022/04/10 04:02:29;;;;;;;;;;;;;;;-142.57;100.00;61215.63;4884500;29;19926;-83
2022/04/10 04:04:55;;;;;;;;;;;;;;;-142.57;100.00;61215.63;4866598;29;19953;-84
2022/04/10 04:07:21;;;;;;;;;;;;;;;-142.57;100.00;61215.63;4878462;29;19927;-90
2022/04/10 04:09:47;;;;;;;;;;;;;;;-142.57;100.00;61215.63;4878636;29;20283;-86
2022/04/10 04:12:13;;;;;;;;;;;;;;;-142.57;100.00;61215.63;4863157;29;19935;-86
2022/04/10 04:14:41;;;;;;;;;;;;;;;-142.57;100.00;61215.63;4878157;29;19919;-88
2022/04/10 04:17:07;;;;;;;;;;;;;;;-142.57;100.00;61215.63;4878050;29;19923;-86
2022/04/10 04:19:32;;;;;;;;;;;;;;;-142.57;100.00;61215.63;4863046;29;20001;-83
2022/04/10 04:21:58;;;;;;;;;;;;;;;-142.57;100.00;61215.63;4879720;29;19988;-87
2022/04/10 04:24:24;;;;;;;;;;;;;;;-142.57;100.00;61215.63;4898632;29;19934;-85
2022/04/10 04:26:50;;;;;;;;;;;;;;;-142.57;100.00;61215.63;4875272;29;19908;-86
2022/04/10 04:29:17;;;;;;;;;;;;;;;-142.57;100.00;61215.63;4906513;29;19933;-86
2022/04/10 04:31:42;;;;;;;;;;;;;;;-142.57;100.00;61215.63;4880113;29;19923;-89
2022/04/10 04:34:11;;;;;;;;;;;;;;;-142.57;100.00;61215.63;4882658;29;19920;-86
2022/04/10 04:36:37;;;;;;;;;;;;;;;-142.57;100.00;61215.63;4880905;29;20003;-85
2022/04/10 04:39:03;;;;;;;;;;;;;;;-142.57;100.00;61215.63;4881460;29;20010;-88
2022/04/10 04:41:29;;;;;;;;;;;;;;;-142.57;100.00;61215.63;4881184;29;19920;-86
2022/04/10 04:43:55;;;;;;;;;;;;;;;-142.57;100.00;61215.63;4882075;29;19927;-83
2022/04/10 04:46:21;;;;;;;;;;;;;;;-142.57;100.00;61215.63;4882073;29;19920;-86
2022/04/10 04:48:46;;;;;;;;;;;;;;;-142.57;100.00;61215.63;4866206;29;20397;-88
2022/04/10 04:51:15;;;;;;;;;;;;;;;-142.57;100.00;61215.63;4885075;29;19972;-84
2022/04/10 04:53:40;;;;;;;;;;;;;;;-142.57;100.00;61215.63;4885507;29;19924;-84
2022/04/10 04:56:06;;;;;;;;;;;;;;;-142.57;100.00;61215.63;4899926;29;19923;-83
2022/04/10 04:58:35;;;;;;;;;;;;;;;-142.57;100.00;61215.63;4901804;29;19924;-82
2022/04/10 05:01:02;;;;;;;;;;;;;;;-142.57;100.00;61215.63;4889512;29;19940;-85
2022/04/10 05:03:29;;;;;;;;;;;;;;;-142.57;100.00;61215.63;4890772;29;20023;-85
2022/04/10 05:05:55;;;;;;;;;;;;;;;-142.57;100.00;61215.63;4884213;29;19955;-85
2022/04/10 05:08:26;;;;;;;;;;;;;;;-142.57;100.00;61215.63;4882639;29;20351;-79
2022/04/10 05:10:53;;;;;;;;;;;;;;;-142.57;100.00;61215.63;4885671;29;20403;-84
2022/04/10 05:13:19;;;;;;;;;;;;;;;-142.57;100.00;61215.63;4869566;29;19915;-87
2022/04/10 05:15:45;;;;;;;;;;;;;;;-142.57;100.00;61215.63;4887528;29;19920;-81
2022/04/10 05:18:13;;;;;;;;;;;;;;;-142.57;100.00;61215.63;4894336;29;19926;-81
2022/04/10 05:20:42;;;;;;;;;;;;;;;-142.57;100.00;61215.63;4891866;29;19923;-88
2022/04/10 05:23:19;;;;;;;;;;;;;;;-142.57;100.00;61215.63;4868405;29;19971;-88
2022/04/10 05:25:51;;;;;;;;;;;;;;;-142.57;100.00;61215.63;4886382;29;19926;-87
2022/04/10 05:28:18;;;;;;;;;;;;;;;-142.57;100.00;61215.63;4887165;29;19970;-86
2022/04/10 05:30:44;;;;;;;;;;;;;;;-142.57;100.00;61215.63;4881643;29;20283;-87
2022/04/10 05:33:14;;;;;;;;;;;;;;;-142.57;100.00;61215.63;4866670;29;20006;-86
2022/04/10 05:35:39;;;;;;;;;;;;;;;-142.57;100.00;61215.63;4883300;29;19955;-86
2022/04/10 05:38:06;;;;;;;;;;;;;;;-142.57;100.00;61215.63;4870601;29;19947;-88
2022/04/10 05:40:32;;;;;;;;;;;;;;;-142.57;100.00;61215.63;4888705;29;19920;-88
2022/04/10 05:42:58;;;;;;;;;;;;;;;-142.57;100.00;61215.63;4887139;29;19926;-87
2022/04/10 05:45:24;;;;;;;;;;;;;;;-142.57;100.00;61215.63;4868503;29;19919;-83
2022/04/10 05:47:53;;;;;;;;;;;;;;;-142.57;100.00;61215.63;4882350;29;20419;-84
2022/04/10 05:50:22;;;;;;;;;;;;;;;-142.57;100.00;61215.63;4881945;29;20331;-87
2022/04/10 05:52:48;;;;;;;;;;;;;;;-142.57;100.00;61215.63;4883149;29;20025;-81
2022/04/10 05:55:17;;;;;;;;;;;;;;;-142.57;100.00;61215.63;4867536;29;20352;-87
2022/04/10 05:57:44;;;;;;;;;;;;;;;-142.57;100.00;61215.63;4886257;29;20074;-88
2022/04/10 06:00:12;;;;;;;;;;;;;;;-142.57;100.00;61215.63;4883216;29;19920;-86
2022/04/10 06:02:41;;;;;;;;;;;;;;;-142.57;100.00;61215.63;4882678;29;19959;-86
2022/04/10 06:05:08;;;;;;;;;;;;;;;-142.57;100.00;61215.63;4884504;29;19971;-84
2022/04/10 06:07:39;;;;;;;;;;;;;;;-142.57;100.00;61215.63;4883591;29;19919;-87
2022/04/10 06:10:05;;;;;;;;;;;;;;;-142.57;100.00;61215.63;4881527;29;19919;-82
2022/04/10 06:12:31;;;;;;;;;;;;;;;-142.57;100.00;61215.63;4866739;29;19919;-86
2022/04/10 06:14:58;;;;;;;;;;;;;;;-142.57;100.00;61215.63;4882764;29;20474;-85
2022/04/10 06:17:24;;;;;;;;;;;;;;;-142.57;100.00;61215.63;4896650;29;20004;-87
2022/04/10 06:19:49;;;;;;;;;;;;;;;-142.57;100.00;61215.63;4881665;29;20006;-86
2022/04/10 06:22:16;;;;;;;;;;;;;;;-142.57;100.00;61215.63;4881694;29;20379;-84
2022/04/10 06:24:42;;;;;;;;;;;;;;;-142.57;100.00;61215.63;4881438;29;20010;-83
2022/04/10 06:27:07;;;;;;;;;;;;;;;-142.57;100.00;61215.63;4868245;29;19919;-84
2022/04/10 06:29:34;;;;;;;;;;;;;;;-142.57;100.00;61215.63;4882068;29;19920;-84
2022/04/10 06:32:02;;;;;;;;;;;;;;;-142.57;100.00;61215.63;4868180;29;20309;-84
2022/04/10 06:34:33;;;;;;;;;;;;;;;-142.57;100.00;61215.63;4880192;29;19920;-82
2022/04/10 06:37:01;;;;;;;;;;;;;;;-142.57;100.00;61215.63;4884777;29;19951;-85
2022/04/10 06:39:30;;;;;;;;;;;;;;;-142.57;100.00;61215.63;4888244;29;19944;-81
2022/04/10 06:41:57;;;;;;;;;;;;;;;-142.57;100.00;61215.63;4879304;29;19915;-81
2022/04/10 06:44:45;;;;;;;;;;;;;;;-142.57;100.00;61215.63;4857756;29;19958;-81
2022/04/10 06:47:17;;;;;;;;;;;;;;;-142.57;100.00;61215.63;4877395;29;19924;-80
2022/04/10 06:49:48;;;;;;;;;;;;;;;-142.57;100.00;61215.63;4894379;29;19920;-79
2022/04/10 06:52:13;;;;;;;;;;;;;;;-142.57;100.00;61215.63;4889511;29;19974;-80
2022/04/10 06:54:40;;;;;;;;;;;;;;;-142.57;100.00;61215.63;4899725;29;19954;-83
2022/04/10 06:57:07;;;;;;;;;;;;;;;-142.57;100.00;61215.63;4898173;29;19924;-79
2022/04/10 06:59:33;;;;;;;;;;;;;;;-142.57;100.00;61215.63;4889005;29;19920;-84
2022/04/10 07:02:02;;;;;;;;;;;;;;;-142.57;100.00;61215.63;4884043;29;19948;-82
2022/04/10 07:04:27;;;;;;;;;;;;;;;-142.57;100.00;61215.63;4888967;29;19920;-84
2022/04/10 07:06:54;;;;;;;;;;;;;;;-142.57;100.00;61215.63;4878536;29;19919;-84
2022/04/10 07:09:20;;;;;;;;;;;;;;;-142.57;100.00;61215.63;4882870;29;19957;-82
2022/04/10 07:11:46;;;;;;;;;;;;;;;-142.57;100.00;61215.63;4882916;29;20026;-83
2022/04/10 07:14:30;;;;;;;;;;;;;;;-142.57;100.00;61215.63;4873886;29;19956;-81
2022/04/10 07:16:56;;;;;;;;;;;;;;;-142.57;100.00;61215.63;4898470;29;19979;-78
2022/04/10 07:19:21;;;;;;;;;;;;;;;-142.57;100.00;61215.63;4882647;29;20374;-81
2022/04/10 07:24:32;;;;;;;;;;;;;;;-142.57;100.00;61215.63;4863646;29;20287;-82
2022/04/10 07:26:57;;;;;;;;;;;;;;;-142.57;100.00;61215.63;4863027;29;19920;-79
2022/04/10 07:29:29;;;;;;;;;;;;;;;-142.57;100.00;61215.63;4878673;29;20401;-82
2022/04/10 07:31:55;;;;;;;;;;;;;;;-142.57;100.00;61215.63;4881390;29;19916;-81
2022/04/10 07:34:20;;;;;;;;;;;;;;;-142.57;100.00;61215.63;4885808;29;19979;-79
2022/04/10 07:37:04;;;;;;;;;;;;;;;-142.57;100.00;61215.63;4898587;29;19962;-80
2022/04/10 07:39:41;;;;;;;;;;;;;;;-142.57;100.00;61215.63;4897875;29;19900;-81
2022/04/10 07:42:15;;;;;;;;;;;;;;;-142.57;100.00;61215.63;4883998;29;19927;-80
2022/04/10 07:44:40;;;;;;;;;;;;;;;-142.57;100.00;61215.63;4885646;29;19923;-81
2022/04/10 07:49:50;;;;;;;;;;;;;;;-142.57;100.00;61215.63;4897011;29;19957;-82
2022/04/10 07:52:16;;;;;;;;;;;;;;;-142.57;100.00;61215.63;4896583;29;19920;-78
2022/04/10 07:54:52;;;;;;;;;;;;;;;-142.57;100.00;61215.63;4897529;29;19958;-83
2022/04/10 07:57:18;;;;;;;;;;;;;;;-142.57;100.00;61215.63;4897589;29;19920;-80
2022/04/10 07:59:47;;;;;;;;;;;;;;;-142.57;100.00;61215.63;4886255;29;19981;-79
2022/04/10 08:02:18;;;;;;;;;;;;;;;-142.57;100.00;61215.63;4889147;29;19927;-82
2022/04/10 08:04:44;;;;;;;;;;;;;;;-142.57;100.00;61215.63;4886786;29;19920;-84
2022/04/10 08:07:32;;;;;;;;;;;;;;;-142.57;100.00;61215.63;4898289;29;19919;-82
2022/04/10 08:09:57;;;;;;;;;;;;;;;-142.57;100.00;61215.63;4892383;29;20014;-81
2022/04/10 08:12:23;;;;;;;;;;;;;;;-142.57;100.00;61215.63;4887903;29;19967;-82
2022/04/10 08:14:49;;;;;;;;;;;;;;;-142.57;100.00;61215.63;4889196;29;20002;-80
2022/04/10 08:17:14;;;;;;;;;;;;;;;-142.57;100.00;61215.63;4888207;29;19919;-81
2022/04/10 08:19:40;;;;;;;;;;;;;;;-142.57;100.00;61215.63;4886908;29;19919;-81
2022/04/10 08:22:05;;;;;;;;;;;;;;;-142.57;100.00;61215.63;4886670;29;19931;-79
2022/04/10 08:24:31;;;;;;;;;;;;;;;-142.57;100.00;61215.63;4887178;29;20391;-81
2022/04/10 08:26:56;;;;;;;;;;;;;;;-142.57;100.00;61215.63;4887114;29;19924;-83
2022/04/10 08:29:22;;;;;;;;;;;;;;;-142.57;100.00;61215.63;4887623;29;20488;-81
2022/04/10 08:31:47;;;;;;;;;;;;;;;-142.57;100.00;61215.63;4885526;29;19939;-77
2022/04/10 08:34:13;;;;;;;;;;;;;;;-142.57;100.00;61215.63;4882620;29;19919;-78
2022/04/10 08:36:39;;;;;;;;;;;;;;;-142.57;100.00;61215.63;4883409;29;19923;-80
2022/04/10 08:39:05;;;;;;;;;;;;;;;-142.57;100.00;61215.63;4887805;29;19922;-82
2022/04/10 08:41:32;;;;;;;;;;;;;;;-142.57;100.00;61215.63;4894319;29;20045;-78
2022/04/10 08:44:00;;;;;;;;;;;;;;;-142.57;100.00;61215.63;4895477;29;20283;-78
2022/04/10 08:46:29;;;;;;;;;;;;;;;-142.57;100.00;61215.63;4894211;29;19927;-81
2022/04/10 08:48:55;;;;;;;;;;;;;;;-142.57;100.00;61215.63;4883570;29;19927;-78
2022/04/10 08:51:22;;;;;;;;;;;;;;;-142.57;100.00;61215.63;4892077;29;20379;-79
2022/04/10 08:53:48;;;;;;;;;;;;;;;-142.57;100.00;61215.63;4884554;29;19920;-86
2022/04/10 08:56:16;;;;;;;;;;;;;;;-142.57;100.00;61215.63;4896591;29;19976;-87
2022/04/10 08:58:41;;;;;;;;;;;;;;;-142.57;100.00;61215.63;4893858;29;19920;-86
2022/04/10 09:04:05;;;;;;;;;;;;;;;-142.57;100.00;61215.63;4892411;29;20208;-89
2022/04/10 09:06:30;;;;;;;;;;;;;;;-142.57;100.00;61215.63;4882894;29;20280;-86
2022/04/10 09:09:18;;;;;;;;;;;;;;;-142.57;100.00;61215.63;4869570;29;20015;-86
2022/04/10 09:11:51;;;;;;;;;;;;;;;-142.57;100.00;61215.63;4885586;29;20279;-89
2022/04/10 09:14:33;;;;;;;;;;;;;;;-142.57;100.00;61215.63;4890029;29;19920;-87
2022/04/10 09:17:08;;;;;;;;;;;;;;;-142.57;100.00;61215.63;4886772;29;20597;-87
2022/04/10 09:19:38;;;;;;;;;;;;;;;-142.57;100.00;61215.63;4878086;29;20347;-89
2022/04/10 09:22:25;;;;;;;;;;;;;;;-142.57;100.00;61215.63;4873300;29;20011;-89
2022/04/10 09:25:16;;;;;;;;;;;;;;;-142.57;100.00;61215.63;4874233;29;19919;-87
2022/04/10 09:27:43;;;;;;;;;;;;;;;-142.57;100.00;61215.63;4887786;29;19923;-88
2022/04/10 09:30:13;;;;;;;;;;;;;;;-142.57;100.00;61215.63;4891575;29;20430;-89
2022/04/10 09:32:43;;;;;;;;;;;;;;;-142.57;100.00;61215.63;4890886;29;19927;-90
2022/04/10 09:35:11;;;;;;;;;;;;;;;-142.57;100.00;61215.63;4870915;29;19926;-90
2022/04/10 09:37:43;;;;;;;;;;;;;;;-142.57;100.00;61215.63;4889836;29;19928;-90
2022/04/10 09:40:27;;;;;;;;;;;;;;;-142.57;100.00;61215.63;4886889;29;19919;-84
2022/04/10 09:43:06;;;;;;;;;;;;;;;-142.57;100.00;61215.63;4871020;29;20356;-87
2022/04/10 09:45:43;;;;;;;;;;;;;;;-142.57;100.00;61215.63;4884286;29;19962;-85
2022/04/10 09:48:29;;;;;;;;;;;;;;;-142.57;100.00;61215.63;4884272;29;19976;-87
2022/04/10 09:51:04;;;;;;;;;;;;;;;-142.57;100.00;61215.63;4872088;29;20425;-87
2022/04/10 09:53:32;;;;;;;;;;;;;;;-142.57;100.00;61215.63;4888350;29;20007;-86
2022/04/10 09:55:57;;;;;;;;;;;;;;;-142.57;100.00;61215.63;4886153;29;19926;-83
2022/04/10 09:58:23;;;;;;;;;;;;;;;-142.57;100.00;61215.63;4872584;29;20011;-83
2022/04/10 10:00:52;;;;;;;;;;;;;;;-142.57;100.00;61215.63;4877655;29;19927;-85
2022/04/10 10:03:18;;;;;;;;;;;;;;;-142.57;100.00;61215.63;4866419;29;19955;-83
2022/04/10 10:05:46;;;;;;;;;;;;;;;-142.57;100.00;61215.63;4883070;29;20360;-83
2022/04/10 10:08:12;;;;;;;;;;;;;;;-142.57;100.00;61215.63;4864772;29;20299;-81
2022/04/10 10:10:38;;;;;;;;;;;;;;;-142.57;100.00;61215.63;4880408;29;19963;-86
2022/04/10 10:13:05;;;;;;;;;;;;;;;-142.57;100.00;61215.63;4870662;29;19916;-84
2022/04/10 10:15:40;;;;;;;;;;;;;;;-142.57;100.00;61215.63;4867998;29;20033;-84
2022/04/10 10:18:07;;;;;;;;;;;;;;;-142.57;100.00;61215.63;4880538;29;19957;-85
2022/04/10 10:20:33;;;;;;;;;;;;;;;-142.57;100.00;61215.63;4881271;29;19920;-83
2022/04/10 10:23:02;;;;;;;;;;;;;;;-142.57;100.00;61215.63;4881649;29;19968;-82
2022/04/10 10:25:29;;;;;;;;;;;;;;;-142.57;100.00;61215.63;4882000;29;20375;-84
2022/04/10 10:27:54;;;;;;;;;;;;;;;-142.57;100.00;61215.63;4866231;29;19923;-83
2022/04/10 10:30:35;;;;;;;;;;;;;;;-142.57;100.00;61215.63;4881309;29;20018;-84
2022/04/10 10:33:21;;;;;;;;;;;;;;;-142.57;100.00;61215.63;4883720;29;19924;-84
2022/04/10 10:35:49;;;;;;;;;;;;;;;-142.57;100.00;61215.63;4861792;29;19924;-82
2022/04/10 10:38:23;;;;;;;;;;;;;;;-142.57;100.00;61215.63;4882939;29;19927;-83
2022/04/10 10:40:49;;;;;;;;;;;;;;;-142.57;100.00;61215.63;4882562;29;20406;-84
2022/04/10 10:43:33;;;;;;;;;;;;;;;-142.57;100.00;61215.63;4883416;29;19919;-85
2022/04/10 10:45:58;;;;;;;;;;;;;;;-142.57;100.00;61215.63;4865264;29;19919;-85
2022/04/10 10:48:35;;;;;;;;;;;;;;;-142.57;100.00;61215.63;4850974;29;19935;-86
2022/04/10 10:51:09;;;;;;;;;;;;;;;-142.57;100.00;61215.63;4850861;29;19920;-87
2022/04/10 10:53:44;;;;;;;;;;;;;;;-142.57;100.00;61215.63;4870943;29;19924;-87
2022/04/10 10:56:30;;;;;;;;;;;;;;;-142.57;100.00;61215.63;4852224;29;19949;-86
2022/04/10 10:59:15;;;;;;;;;;;;;;;-142.57;100.00;61215.63;4866100;29;20014;-86
2022/04/10 11:01:51;;;;;;;;;;;;;;;-142.57;100.00;61215.63;4850542;29;20366;-88
2022/04/10 11:04:18;;;;;;;;;;;;;;;-142.57;100.00;61215.63;4856597;29;19966;-87
2022/04/10 11:06:44;;;;;;;;;;;;;;;-142.57;100.00;61215.63;4888508;29;19930;-85
2022/04/10 11:09:29;;;;;;;;;;;;;;;-142.57;100.00;61215.63;4882450;29;19927;-85
2022/04/10 11:11:58;;;;;;;;;;;;;;;-142.57;100.00;61215.63;4883823;29;19915;-87
2022/04/10 11:14:56;;;;;;;;;;;;;;;-142.57;100.00;61215.63;4884608;29;19927;-86
2022/04/10 11:17:26;;;;;;;;;;;;;;;-142.57;100.00;61215.63;4880962;29;19916;-85
2022/04/10 11:19:54;;;;;;;;;;;;;;;-142.57;100.00;61215.63;4878920;29;19927;-87
2022/04/10 11:22:38;;;;;;;;;;;;;;;-142.57;100.00;61215.63;4880853;29;19916;-85
2022/04/10 11:25:04;;;;;;;;;;;;;;;-142.57;100.00;61215.63;4889142;29;19920;-85
2022/04/10 11:27:43;;;;;;;;;;;;;;;-142.57;100.00;61215.63;4870148;29;20406;-84
2022/04/10 11:30:11;;;;;;;;;;;;;;;-142.57;100.00;61215.63;4886365;29;19924;-84
2022/04/10 11:32:40;;;;;;;;;;;;;;;-142.57;100.00;61215.63;4877138;29;19932;-84
2022/04/10 11:35:12;;;;;;;;;;;;;;;-142.57;100.00;61215.63;4867075;29;19927;-88
2022/04/10 11:37:39;;;;;;;;;;;;;;;-142.57;100.00;61215.63;4894343;29;19954;-90
2022/04/10 11:40:05;;;;;;;;;;;;;;;-142.57;100.00;61215.63;4888739;29;19923;-90
2022/04/10 11:42:31;;;;;;;;;;;;;;;-142.57;100.00;61215.63;4893685;29;19926;-91
2022/04/10 11:45:00;;;;;;;;;;;;;;;-142.57;100.00;61215.63;4886470;29;19954;-92
2022/04/10 11:47:25;;;;;;;;;;;;;;;-142.57;100.00;61215.63;4873312;29;19965;-86
2022/04/10 11:50:00;;;;;;;;;;;;;;;-142.57;100.00;61215.63;4893405;29;19919;-90
2022/04/10 11:52:25;;;;;;;;;;;;;;;-142.57;100.00;61215.63;4880867;29;19916;-89
2022/04/10 11:54:54;;;;;;;;;;;;;;;-142.57;100.00;61215.63;4892986;29;19937;-88
2022/04/10 11:57:23;;;;;;;;;;;;;;;-142.57;100.00;61215.63;4889358;29;19920;-88
2022/04/10 11:59:52;;;;;;;;;;;;;;;-142.57;100.00;61215.63;4892082;29;19916;-86
2022/04/10 12:02:17;;;;;;;;;;;;;;;-142.57;100.00;61215.63;4895729;29;19931;-86
2022/04/10 12:04:43;;;;;;;;;;;;;;;-142.57;100.00;61215.63;4874627;29;19912;-88
2022/04/10 12:07:17;;;;;;;;;;;;;;;-142.57;100.00;61215.63;4901588;29;19935;-84
2022/04/10 12:09:43;;;;;;;;;;;;;;;-142.57;100.00;61215.63;4895690;29;19926;-84
2022/04/10 12:12:09;;;;;;;;;;;;;;;-142.57;100.00;61215.63;4891187;29;19920;-89
2022/04/10 12:14:35;;;;;;;;;;;;;;;-142.57;100.00;61215.63;4856285;29;19935;-90
2022/04/10 12:17:00;;;;;;;;;;;;;;;-142.57;100.00;61215.63;4865434;29;20018;-86
2022/04/10 12:19:34;;;;;;;;;;;;;;;-142.57;100.00;61215.63;4885188;29;20041;-86
2022/04/10 12:22:01;;;;;;;;;;;;;;;-142.57;100.00;61215.63;4885915;29;19920;-85
2022/04/10 12:24:29;;;;;;;;;;;;;;;-142.57;100.00;61215.63;4886159;29;19924;-88
2022/04/10 12:26:56;;;;;;;;;;;;;;;-142.57;100.00;61215.63;4878620;29;19928;-86
2022/04/10 12:29:21;;;;;;;;;;;;;;;-142.57;100.00;61215.63;4889633;29;19985;-87
2022/04/10 12:31:48;;;;;;;;;;;;;;;-142.57;100.00;61215.63;4884637;29;19927;-84
2022/04/10 12:34:14;;;;;;;;;;;;;;;-142.57;100.00;61215.63;4887662;29;19939;-87
2022/04/10 12:36:49;;;;;;;;;;;;;;;-142.57;100.00;61215.63;4888294;29;20267;-89
2022/04/10 12:39:27;;;;;;;;;;;;;;;-142.57;100.00;61215.63;4890949;29;19920;-87